sensor_id;sensor_type;location;lat;lon;timestamp;P1;durP1;ratioP1;P2;durP2;ratioP2
84121;SDS011;74217;51.106;17.084;2023-11-19T00:01:36;28.58;;;15.60;;
84121;SDS011;74217;51.106;17.084;2023-11-19T00:04:21;27.80;;;17.30;;
84121;SDS011;74217;51.106;17.084;2023-11-19T00:07:06;30.55;;;17.95;;
84121;SDS011;74217;51.106;17.084;2023-11-19T00:09:52;27.33;;;15.50;;
84121;SDS011;74217;51.106;17.084;2023-11-19T00:12:40;26.77;;;16.80;;
84121;SDS011;74217;51.106;17.084;2023-11-19T00:15:26;29.58;;;18.15;;
84121;SDS011;74217;51.106;17.084;2023-11-19T00:18:11;32.75;;;18.63;;
84121;SDS011;74217;51.106;17.084;2023-11-19T00:20:55;27.90;;;18.67;;
84121;SDS011;74217;51.106;17.084;2023-11-19T00:23:40;31.92;;;17.63;;
84121;SDS011;74217;51.106;17.084;2023-11-19T00:26:24;37.63;;;21.65;;
84121;SDS011;74217;51.106;17.084;2023-11-19T00:29:09;35.65;;;20.00;;
84121;SDS011;74217;51.106;17.084;2023-11-19T00:31:54;35.67;;;21.10;;
84121;SDS011;74217;51.106;17.084;2023-11-19T00:34:38;32.28;;;18.75;;
84121;SDS011;74217;51.106;17.084;2023-11-19T00:37:23;32.35;;;18.40;;
84121;SDS011;74217;51.106;17.084;2023-11-19T00:40:10;32.50;;;18.15;;
84121;SDS011;74217;51.106;17.084;2023-11-19T00:42:55;31.92;;;17.25;;
84121;SDS011;74217;51.106;17.084;2023-11-19T00:45:41;33.38;;;16.92;;
84121;SDS011;74217;51.106;17.084;2023-11-19T00:48:27;31.60;;;17.65;;
84121;SDS011;74217;51.106;17.084;2023-11-19T00:51:12;32.67;;;19.77;;
84121;SDS011;74217;51.106;17.084;2023-11-19T00:53:57;32.00;;;19.55;;
84121;SDS011;74217;51.106;17.084;2023-11-19T00:56:43;33.10;;;18.50;;
84121;SDS011;74217;51.106;17.084;2023-11-19T00:59:28;32.50;;;17.08;;
84121;SDS011;74217;51.106;17.084;2023-11-19T01:02:13;26.38;;;17.38;;
84121;SDS011;74217;51.106;17.084;2023-11-19T01:04:58;27.92;;;16.42;;
84121;SDS011;74217;51.106;17.084;2023-11-19T01:07:42;29.85;;;18.15;;
84121;SDS011;74217;51.106;17.084;2023-11-19T01:10:27;29.17;;;16.90;;
84121;SDS011;74217;51.106;17.084;2023-11-19T01:13:13;31.75;;;18.10;;
84121;SDS011;74217;51.106;17.084;2023-11-19T01:15:58;32.28;;;17.20;;
84121;SDS011;74217;51.106;17.084;2023-11-19T01:18:42;26.73;;;16.80;;
84121;SDS011;74217;51.106;17.084;2023-11-19T01:21:27;33.75;;;18.00;;
84121;SDS011;74217;51.106;17.084;2023-11-19T01:24:12;32.65;;;17.70;;
84121;SDS011;74217;51.106;17.084;2023-11-19T01:26:58;27.17;;;14.50;;
84121;SDS011;74217;51.106;17.084;2023-11-19T01:29:44;27.42;;;15.88;;
84121;SDS011;74217;51.106;17.084;2023-11-19T01:32:29;30.83;;;18.27;;
84121;SDS011;74217;51.106;17.084;2023-11-19T01:35:14;28.00;;;16.75;;
84121;SDS011;74217;51.106;17.084;2023-11-19T01:37:58;26.02;;;16.25;;
84121;SDS011;74217;51.106;17.084;2023-11-19T01:40:43;27.83;;;17.23;;
84121;SDS011;74217;51.106;17.084;2023-11-19T01:43:34;26.13;;;16.20;;
84121;SDS011;74217;51.106;17.084;2023-11-19T01:46:20;26.02;;;14.73;;
84121;SDS011;74217;51.106;17.084;2023-11-19T01:49:04;30.38;;;17.23;;
84121;SDS011;74217;51.106;17.084;2023-11-19T01:51:49;27.17;;;16.65;;
84121;SDS011;74217;51.106;17.084;2023-11-19T01:54:34;25.92;;;17.73;;
84121;SDS011;74217;51.106;17.084;2023-11-19T01:57:19;31.30;;;18.92;;
84121;SDS011;74217;51.106;17.084;2023-11-19T02:00:07;26.50;;;16.40;;
84121;SDS011;74217;51.106;17.084;2023-11-19T02:02:55;26.63;;;15.80;;
84121;SDS011;74217;51.106;17.084;2023-11-19T02:05:41;27.08;;;15.05;;
84121;SDS011;74217;51.106;17.084;2023-11-19T02:08:26;28.80;;;16.20;;
84121;SDS011;74217;51.106;17.084;2023-11-19T02:11:11;29.13;;;17.48;;
84121;SDS011;74217;51.106;17.084;2023-11-19T02:13:56;26.17;;;15.85;;
84121;SDS011;74217;51.106;17.084;2023-11-19T02:16:41;25.33;;;14.82;;
84121;SDS011;74217;51.106;17.084;2023-11-19T02:19:25;30.05;;;15.27;;
84121;SDS011;74217;51.106;17.084;2023-11-19T02:22:10;25.42;;;16.13;;
84121;SDS011;74217;51.106;17.084;2023-11-19T02:24:57;28.77;;;16.40;;
84121;SDS011;74217;51.106;17.084;2023-11-19T02:30:39;30.27;;;14.98;;
84121;SDS011;74217;51.106;17.084;2023-11-19T02:33:25;28.20;;;17.50;;
84121;SDS011;74217;51.106;17.084;2023-11-19T02:36:11;29.77;;;16.50;;
84121;SDS011;74217;51.106;17.084;2023-11-19T02:38:55;30.20;;;17.20;;
84121;SDS011;74217;51.106;17.084;2023-11-19T02:41:40;26.75;;;14.48;;
84121;SDS011;74217;51.106;17.084;2023-11-19T02:44:25;26.77;;;16.27;;
84121;SDS011;74217;51.106;17.084;2023-11-19T02:47:13;32.08;;;17.25;;
84121;SDS011;74217;51.106;17.084;2023-11-19T02:49:58;28.73;;;17.10;;
84121;SDS011;74217;51.106;17.084;2023-11-19T02:52:43;30.02;;;16.75;;
84121;SDS011;74217;51.106;17.084;2023-11-19T02:58:22;27.90;;;15.25;;
84121;SDS011;74217;51.106;17.084;2023-11-19T03:01:08;29.33;;;16.88;;
84121;SDS011;74217;51.106;17.084;2023-11-19T03:04:19;30.40;;;16.52;;
84121;SDS011;74217;51.106;17.084;2023-11-19T03:07:07;28.45;;;18.23;;
84121;SDS011;74217;51.106;17.084;2023-11-19T03:09:51;33.00;;;18.10;;
84121;SDS011;74217;51.106;17.084;2023-11-19T03:12:36;32.05;;;16.63;;
84121;SDS011;74217;51.106;17.084;2023-11-19T03:15:21;32.13;;;21.20;;
84121;SDS011;74217;51.106;17.084;2023-11-19T03:18:06;30.55;;;16.73;;
84121;SDS011;74217;51.106;17.084;2023-11-19T03:20:52;33.38;;;18.35;;
84121;SDS011;74217;51.106;17.084;2023-11-19T03:23:36;31.88;;;19.48;;
84121;SDS011;74217;51.106;17.084;2023-11-19T03:26:21;34.92;;;19.13;;
84121;SDS011;74217;51.106;17.084;2023-11-19T03:29:06;34.30;;;18.10;;
84121;SDS011;74217;51.106;17.084;2023-11-19T03:31:50;36.38;;;17.60;;
84121;SDS011;74217;51.106;17.084;2023-11-19T03:34:35;32.15;;;16.23;;
84121;SDS011;74217;51.106;17.084;2023-11-19T03:37:19;30.42;;;19.83;;
84121;SDS011;74217;51.106;17.084;2023-11-19T03:40:04;30.02;;;16.33;;
84121;SDS011;74217;51.106;17.084;2023-11-19T03:42:49;29.63;;;16.73;;
84121;SDS011;74217;51.106;17.084;2023-11-19T03:45:33;30.02;;;17.95;;
84121;SDS011;74217;51.106;17.084;2023-11-19T03:48:18;30.98;;;16.83;;
84121;SDS011;74217;51.106;17.084;2023-11-19T03:51:02;27.98;;;17.17;;
84121;SDS011;74217;51.106;17.084;2023-11-19T03:53:48;31.20;;;16.85;;
84121;SDS011;74217;51.106;17.084;2023-11-19T03:56:32;31.45;;;17.00;;
84121;SDS011;74217;51.106;17.084;2023-11-19T03:59:17;28.70;;;19.30;;
84121;SDS011;74217;51.106;17.084;2023-11-19T04:02:04;29.65;;;16.60;;
84121;SDS011;74217;51.106;17.084;2023-11-19T04:04:49;29.85;;;16.83;;
84121;SDS011;74217;51.106;17.084;2023-11-19T04:07:33;25.58;;;16.42;;
84121;SDS011;74217;51.106;17.084;2023-11-19T04:10:18;28.65;;;17.27;;
84121;SDS011;74217;51.106;17.084;2023-11-19T04:13:04;28.10;;;16.83;;
84121;SDS011;74217;51.106;17.084;2023-11-19T04:15:50;24.90;;;15.10;;
84121;SDS011;74217;51.106;17.084;2023-11-19T04:18:34;26.13;;;15.27;;
84121;SDS011;74217;51.106;17.084;2023-11-19T04:21:19;32.25;;;16.15;;
84121;SDS011;74217;51.106;17.084;2023-11-19T04:24:03;34.70;;;15.68;;
84121;SDS011;74217;51.106;17.084;2023-11-19T04:26:48;29.77;;;15.63;;
84121;SDS011;74217;51.106;17.084;2023-11-19T04:29:32;32.20;;;16.67;;
84121;SDS011;74217;51.106;17.084;2023-11-19T04:32:18;28.77;;;15.70;;
84121;SDS011;74217;51.106;17.084;2023-11-19T04:35:03;26.95;;;15.43;;
84121;SDS011;74217;51.106;17.084;2023-11-19T04:37:48;24.90;;;14.95;;
84121;SDS011;74217;51.106;17.084;2023-11-19T04:40:33;30.20;;;17.02;;
84121;SDS011;74217;51.106;17.084;2023-11-19T04:43:18;28.58;;;16.42;;
84121;SDS011;74217;51.106;17.084;2023-11-19T04:46:04;28.60;;;15.70;;
84121;SDS011;74217;51.106;17.084;2023-11-19T04:48:49;23.52;;;14.07;;
84121;SDS011;74217;51.106;17.084;2023-11-19T04:51:37;28.73;;;15.98;;
84121;SDS011;74217;51.106;17.084;2023-11-19T04:54:26;30.10;;;15.43;;
84121;SDS011;74217;51.106;17.084;2023-11-19T04:57:10;25.85;;;14.25;;
84121;SDS011;74217;51.106;17.084;2023-11-19T04:59:55;28.25;;;14.80;;
84121;SDS011;74217;51.106;17.084;2023-11-19T05:02:40;28.02;;;15.05;;
84121;SDS011;74217;51.106;17.084;2023-11-19T05:05:24;29.70;;;14.80;;
84121;SDS011;74217;51.106;17.084;2023-11-19T05:08:09;26.90;;;15.02;;
84121;SDS011;74217;51.106;17.084;2023-11-19T05:10:53;28.83;;;14.75;;
84121;SDS011;74217;51.106;17.084;2023-11-19T05:13:38;27.52;;;14.00;;
84121;SDS011;74217;51.106;17.084;2023-11-19T05:16:23;23.13;;;14.10;;
84121;SDS011;74217;51.106;17.084;2023-11-19T05:19:07;26.00;;;14.82;;
84121;SDS011;74217;51.106;17.084;2023-11-19T05:21:53;25.88;;;16.10;;
84121;SDS011;74217;51.106;17.084;2023-11-19T05:24:37;25.17;;;15.68;;
84121;SDS011;74217;51.106;17.084;2023-11-19T05:27:23;26.77;;;16.05;;
84121;SDS011;74217;51.106;17.084;2023-11-19T05:30:08;23.33;;;13.90;;
84121;SDS011;74217;51.106;17.084;2023-11-19T05:32:54;23.05;;;13.68;;
84121;SDS011;74217;51.106;17.084;2023-11-19T05:35:39;22.50;;;12.68;;
84121;SDS011;74217;51.106;17.084;2023-11-19T05:38:24;22.83;;;13.27;;
84121;SDS011;74217;51.106;17.084;2023-11-19T05:41:08;26.35;;;14.02;;
84121;SDS011;74217;51.106;17.084;2023-11-19T05:43:54;27.05;;;14.70;;
84121;SDS011;74217;51.106;17.084;2023-11-19T05:46:38;23.15;;;12.98;;
84121;SDS011;74217;51.106;17.084;2023-11-19T05:49:26;21.75;;;13.43;;
84121;SDS011;74217;51.106;17.084;2023-11-19T05:52:11;19.48;;;11.32;;
84121;SDS011;74217;51.106;17.084;2023-11-19T05:54:56;22.33;;;12.77;;
84121;SDS011;74217;51.106;17.084;2023-11-19T05:57:41;24.90;;;14.02;;
84121;SDS011;74217;51.106;17.084;2023-11-19T06:00:26;20.73;;;12.98;;
84121;SDS011;74217;51.106;17.084;2023-11-19T06:03:10;22.02;;;11.95;;
84121;SDS011;74217;51.106;17.084;2023-11-19T06:05:55;22.23;;;12.75;;
84121;SDS011;74217;51.106;17.084;2023-11-19T06:08:39;23.38;;;13.55;;
84121;SDS011;74217;51.106;17.084;2023-11-19T06:11:24;24.40;;;12.88;;
84121;SDS011;74217;51.106;17.084;2023-11-19T06:14:10;20.83;;;12.27;;
84121;SDS011;74217;51.106;17.084;2023-11-19T06:16:55;20.27;;;11.85;;
84121;SDS011;74217;51.106;17.084;2023-11-19T06:19:40;24.65;;;12.80;;
84121;SDS011;74217;51.106;17.084;2023-11-19T06:22:24;23.95;;;13.40;;
84121;SDS011;74217;51.106;17.084;2023-11-19T06:25:09;22.63;;;13.63;;
84121;SDS011;74217;51.106;17.084;2023-11-19T06:27:55;18.58;;;12.35;;
84121;SDS011;74217;51.106;17.084;2023-11-19T06:30:41;21.70;;;12.18;;
84121;SDS011;74217;51.106;17.084;2023-11-19T06:33:25;25.02;;;12.55;;
84121;SDS011;74217;51.106;17.084;2023-11-19T06:36:10;19.95;;;12.23;;
84121;SDS011;74217;51.106;17.084;2023-11-19T06:39:00;23.10;;;13.95;;
84121;SDS011;74217;51.106;17.084;2023-11-19T06:41:45;19.92;;;12.13;;
84121;SDS011;74217;51.106;17.084;2023-11-19T06:44:30;21.25;;;11.38;;
84121;SDS011;74217;51.106;17.084;2023-11-19T06:47:15;19.88;;;10.65;;
84121;SDS011;74217;51.106;17.084;2023-11-19T06:49:59;22.08;;;13.32;;
84121;SDS011;74217;51.106;17.084;2023-11-19T06:52:44;16.88;;;10.32;;
84121;SDS011;74217;51.106;17.084;2023-11-19T06:55:29;23.50;;;10.98;;
84121;SDS011;74217;51.106;17.084;2023-11-19T06:58:14;16.08;;;11.18;;
84121;SDS011;74217;51.106;17.084;2023-11-19T07:00:59;18.50;;;11.77;;
84121;SDS011;74217;51.106;17.084;2023-11-19T07:03:45;19.85;;;10.85;;
84121;SDS011;74217;51.106;17.084;2023-11-19T07:06:33;16.95;;;10.98;;
84121;SDS011;74217;51.106;17.084;2023-11-19T07:09:18;16.48;;;11.02;;
84121;SDS011;74217;51.106;17.084;2023-11-19T07:12:03;18.00;;;10.95;;
84121;SDS011;74217;51.106;17.084;2023-11-19T07:14:48;18.02;;;11.20;;
84121;SDS011;74217;51.106;17.084;2023-11-19T07:17:33;20.10;;;11.07;;
84121;SDS011;74217;51.106;17.084;2023-11-19T07:20:18;19.35;;;10.23;;
84121;SDS011;74217;51.106;17.084;2023-11-19T07:23:03;18.80;;;10.48;;
84121;SDS011;74217;51.106;17.084;2023-11-19T07:25:48;15.02;;;10.38;;
84121;SDS011;74217;51.106;17.084;2023-11-19T07:28:34;16.92;;;10.27;;
84121;SDS011;74217;51.106;17.084;2023-11-19T07:31:19;18.20;;;11.20;;
84121;SDS011;74217;51.106;17.084;2023-11-19T07:34:04;16.00;;;10.90;;
84121;SDS011;74217;51.106;17.084;2023-11-19T07:36:50;18.88;;;10.90;;
84121;SDS011;74217;51.106;17.084;2023-11-19T07:39:35;15.52;;;10.38;;
84121;SDS011;74217;51.106;17.084;2023-11-19T07:42:22;19.05;;;11.98;;
84121;SDS011;74217;51.106;17.084;2023-11-19T07:45:08;14.95;;;10.32;;
84121;SDS011;74217;51.106;17.084;2023-11-19T07:47:53;14.43;;;9.98;;
84121;SDS011;74217;51.106;17.084;2023-11-19T07:50:39;18.13;;;11.00;;
84121;SDS011;74217;51.106;17.084;2023-11-19T07:53:26;18.83;;;10.18;;
84121;SDS011;74217;51.106;17.084;2023-11-19T07:56:12;15.38;;;11.88;;
84121;SDS011;74217;51.106;17.084;2023-11-19T07:58:57;16.95;;;10.40;;
84121;SDS011;74217;51.106;17.084;2023-11-19T08:01:41;15.70;;;11.32;;
84121;SDS011;74217;51.106;17.084;2023-11-19T08:04:26;17.55;;;10.20;;
84121;SDS011;74217;51.106;17.084;2023-11-19T08:07:10;17.70;;;10.68;;
84121;SDS011;74217;51.106;17.084;2023-11-19T08:09:55;16.75;;;10.93;;
84121;SDS011;74217;51.106;17.084;2023-11-19T08:12:41;20.17;;;12.07;;
84121;SDS011;74217;51.106;17.084;2023-11-19T08:15:25;15.23;;;10.25;;
84121;SDS011;74217;51.106;17.084;2023-11-19T08:18:10;17.95;;;10.77;;
84121;SDS011;74217;51.106;17.084;2023-11-19T08:20:54;16.67;;;10.60;;
84121;SDS011;74217;51.106;17.084;2023-11-19T08:23:40;18.83;;;11.52;;
84121;SDS011;74217;51.106;17.084;2023-11-19T08:26:25;18.65;;;11.52;;
84121;SDS011;74217;51.106;17.084;2023-11-19T08:29:09;17.48;;;10.75;;
84121;SDS011;74217;51.106;17.084;2023-11-19T08:31:54;18.13;;;12.27;;
84121;SDS011;74217;51.106;17.084;2023-11-19T08:34:38;20.25;;;12.07;;
84121;SDS011;74217;51.106;17.084;2023-11-19T08:37:23;17.27;;;11.02;;
84121;SDS011;74217;51.106;17.084;2023-11-19T08:40:07;20.75;;;12.90;;
84121;SDS011;74217;51.106;17.084;2023-11-19T08:42:53;23.58;;;11.05;;
84121;SDS011;74217;51.106;17.084;2023-11-19T08:45:38;19.27;;;11.70;;
84121;SDS011;74217;51.106;17.084;2023-11-19T08:48:22;20.30;;;12.40;;
84121;SDS011;74217;51.106;17.084;2023-11-19T08:51:07;24.02;;;12.85;;
84121;SDS011;74217;51.106;17.084;2023-11-19T08:53:52;21.10;;;12.25;;
84121;SDS011;74217;51.106;17.084;2023-11-19T08:56:36;19.58;;;11.43;;
84121;SDS011;74217;51.106;17.084;2023-11-19T08:59:22;15.50;;;9.98;;
84121;SDS011;74217;51.106;17.084;2023-11-19T09:02:06;17.08;;;10.60;;
84121;SDS011;74217;51.106;17.084;2023-11-19T09:04:52;20.10;;;11.73;;
84121;SDS011;74217;51.106;17.084;2023-11-19T09:07:36;17.92;;;11.10;;
84121;SDS011;74217;51.106;17.084;2023-11-19T09:10:21;17.83;;;10.50;;
84121;SDS011;74217;51.106;17.084;2023-11-19T09:13:05;17.27;;;12.32;;
84121;SDS011;74217;51.106;17.084;2023-11-19T09:15:50;21.02;;;10.82;;
84121;SDS011;74217;51.106;17.084;2023-11-19T09:18:35;19.02;;;11.13;;
84121;SDS011;74217;51.106;17.084;2023-11-19T09:21:19;13.73;;;9.57;;
84121;SDS011;74217;51.106;17.084;2023-11-19T09:24:05;19.50;;;11.85;;
84121;SDS011;74217;51.106;17.084;2023-11-19T09:26:51;18.00;;;10.13;;
84121;SDS011;74217;51.106;17.084;2023-11-19T09:29:36;17.65;;;11.45;;
84121;SDS011;74217;51.106;17.084;2023-11-19T09:32:20;15.18;;;9.48;;
84121;SDS011;74217;51.106;17.084;2023-11-19T09:35:06;16.17;;;10.65;;
84121;SDS011;74217;51.106;17.084;2023-11-19T09:37:51;16.30;;;9.20;;
84121;SDS011;74217;51.106;17.084;2023-11-19T09:40:36;15.70;;;9.55;;
84121;SDS011;74217;51.106;17.084;2023-11-19T09:43:22;17.60;;;11.18;;
84121;SDS011;74217;51.106;17.084;2023-11-19T09:46:09;18.52;;;10.30;;
84121;SDS011;74217;51.106;17.084;2023-11-19T09:48:57;16.23;;;10.50;;
84121;SDS011;74217;51.106;17.084;2023-11-19T09:51:44;13.15;;;8.48;;
84121;SDS011;74217;51.106;17.084;2023-11-19T09:54:28;15.73;;;9.63;;
84121;SDS011;74217;51.106;17.084;2023-11-19T09:57:13;17.70;;;10.65;;
84121;SDS011;74217;51.106;17.084;2023-11-19T10:00:01;15.40;;;10.10;;
84121;SDS011;74217;51.106;17.084;2023-11-19T10:02:48;17.92;;;10.07;;
84121;SDS011;74217;51.106;17.084;2023-11-19T10:05:34;14.80;;;8.95;;
84121;SDS011;74217;51.106;17.084;2023-11-19T10:08:18;16.00;;;10.27;;
84121;SDS011;74217;51.106;17.084;2023-11-19T10:11:03;17.00;;;9.82;;
84121;SDS011;74217;51.106;17.084;2023-11-19T10:13:49;16.08;;;9.40;;
84121;SDS011;74217;51.106;17.084;2023-11-19T10:16:34;15.18;;;10.02;;
84121;SDS011;74217;51.106;17.084;2023-11-19T10:19:19;18.67;;;10.07;;
84121;SDS011;74217;51.106;17.084;2023-11-19T10:22:04;16.27;;;8.93;;
84121;SDS011;74217;51.106;17.084;2023-11-19T10:24:49;16.20;;;10.95;;
84121;SDS011;74217;51.106;17.084;2023-11-19T10:27:34;20.23;;;10.38;;
84121;SDS011;74217;51.106;17.084;2023-11-19T10:30:22;17.63;;;10.98;;
84121;SDS011;74217;51.106;17.084;2023-11-19T10:33:11;18.25;;;10.88;;
84121;SDS011;74217;51.106;17.084;2023-11-19T10:36:05;16.02;;;9.13;;
84121;SDS011;74217;51.106;17.084;2023-11-19T10:41:37;20.20;;;10.00;;
84121;SDS011;74217;51.106;17.084;2023-11-19T10:44:32;15.65;;;9.18;;
84121;SDS011;74217;51.106;17.084;2023-11-19T10:47:22;17.00;;;9.98;;
84121;SDS011;74217;51.106;17.084;2023-11-19T10:50:07;16.20;;;9.02;;
84121;SDS011;74217;51.106;17.084;2023-11-19T10:52:56;14.80;;;9.30;;
84121;SDS011;74217;51.106;17.084;2023-11-19T10:55:45;15.10;;;10.43;;
84121;SDS011;74217;51.106;17.084;2023-11-19T10:58:33;13.60;;;8.50;;
84121;SDS011;74217;51.106;17.084;2023-11-19T11:01:21;14.50;;;9.45;;
84121;SDS011;74217;51.106;17.084;2023-11-19T11:06:58;11.65;;;8.05;;
84121;SDS011;74217;51.106;17.084;2023-11-19T11:09:43;17.17;;;9.20;;
84121;SDS011;74217;51.106;17.084;2023-11-19T11:12:30;16.00;;;9.02;;
84121;SDS011;74217;51.106;17.084;2023-11-19T11:15:21;15.82;;;10.32;;
84121;SDS011;74217;51.106;17.084;2023-11-19T11:18:06;14.35;;;8.82;;
84121;SDS011;74217;51.106;17.084;2023-11-19T11:20:55;14.10;;;9.38;;
84121;SDS011;74217;51.106;17.084;2023-11-19T11:31:01;16.13;;;7.60;;
84121;SDS011;74217;51.106;17.084;2023-11-19T11:33:41;11.63;;;7.38;;
84121;SDS011;74217;51.106;17.084;2023-11-19T11:39:40;20.48;;;8.40;;
84121;SDS011;74217;51.106;17.084;2023-11-19T11:45:10;12.15;;;7.45;;
84121;SDS011;74217;51.106;17.084;2023-11-19T11:50:57;8.40;;;5.15;;
84121;SDS011;74217;51.106;17.084;2023-11-19T11:53:42;7.40;;;5.38;;
84121;SDS011;74217;51.106;17.084;2023-11-19T11:56:32;7.88;;;4.65;;
84121;SDS011;74217;51.106;17.084;2023-11-19T11:59:20;9.13;;;5.95;;
84121;SDS011;74217;51.106;17.084;2023-11-19T12:02:08;8.35;;;6.80;;
84121;SDS011;74217;51.106;17.084;2023-11-19T12:04:54;7.03;;;5.25;;
84121;SDS011;74217;51.106;17.084;2023-11-19T12:07:39;6.57;;;4.68;;
84121;SDS011;74217;51.106;17.084;2023-11-19T12:10:24;5.63;;;4.70;;
84121;SDS011;74217;51.106;17.084;2023-11-19T12:13:09;6.32;;;4.55;;
84121;SDS011;74217;51.106;17.084;2023-11-19T12:18:40;6.28;;;4.43;;
84121;SDS011;74217;51.106;17.084;2023-11-19T12:21:29;5.20;;;4.18;;
84121;SDS011;74217;51.106;17.084;2023-11-19T12:24:15;5.20;;;3.97;;
84121;SDS011;74217;51.106;17.084;2023-11-19T12:27:00;7.07;;;4.72;;
84121;SDS011;74217;51.106;17.084;2023-11-19T12:29:44;6.00;;;4.55;;
84121;SDS011;74217;51.106;17.084;2023-11-19T12:32:36;6.40;;;4.60;;
84121;SDS011;74217;51.106;17.084;2023-11-19T12:35:28;8.73;;;4.68;;
84121;SDS011;74217;51.106;17.084;2023-11-19T12:38:22;6.78;;;5.22;;
84121;SDS011;74217;51.106;17.084;2023-11-19T12:41:09;7.40;;;4.43;;
84121;SDS011;74217;51.106;17.084;2023-11-19T12:44:10;7.80;;;5.03;;
84121;SDS011;74217;51.106;17.084;2023-11-19T12:47:05;7.35;;;4.95;;
84121;SDS011;74217;51.106;17.084;2023-11-19T12:49:57;7.65;;;4.90;;
84121;SDS011;74217;51.106;17.084;2023-11-19T12:52:42;6.70;;;5.03;;
84121;SDS011;74217;51.106;17.084;2023-11-19T12:55:28;9.60;;;5.70;;
84121;SDS011;74217;51.106;17.084;2023-11-19T13:01:17;7.95;;;5.35;;
84121;SDS011;74217;51.106;17.084;2023-11-19T13:06:59;8.25;;;5.07;;
84121;SDS011;74217;51.106;17.084;2023-11-19T13:09:45;8.65;;;6.20;;
84121;SDS011;74217;51.106;17.084;2023-11-19T13:12:29;10.93;;;7.05;;
84121;SDS011;74217;51.106;17.084;2023-11-19T13:15:23;9.15;;;5.82;;
84121;SDS011;74217;51.106;17.084;2023-11-19T13:18:09;8.73;;;6.13;;
84121;SDS011;74217;51.106;17.084;2023-11-19T13:20:54;9.02;;;6.03;;
84121;SDS011;74217;51.106;17.084;2023-11-19T13:23:41;9.80;;;6.03;;
84121;SDS011;74217;51.106;17.084;2023-11-19T13:26:26;12.88;;;6.43;;
84121;SDS011;74217;51.106;17.084;2023-11-19T13:29:11;9.77;;;7.05;;
84121;SDS011;74217;51.106;17.084;2023-11-19T13:31:56;10.45;;;6.78;;
84121;SDS011;74217;51.106;17.084;2023-11-19T13:34:40;11.68;;;7.32;;
84121;SDS011;74217;51.106;17.084;2023-11-19T13:37:25;12.15;;;6.63;;
84121;SDS011;74217;51.106;17.084;2023-11-19T13:40:10;15.00;;;7.57;;
84121;SDS011;74217;51.106;17.084;2023-11-19T13:42:58;9.90;;;6.93;;
84121;SDS011;74217;51.106;17.084;2023-11-19T13:45:42;10.43;;;7.18;;
84121;SDS011;74217;51.106;17.084;2023-11-19T13:48:27;12.50;;;6.68;;
84121;SDS011;74217;51.106;17.084;2023-11-19T13:51:13;9.13;;;6.40;;
84121;SDS011;74217;51.106;17.084;2023-11-19T13:53:57;10.80;;;6.72;;
84121;SDS011;74217;51.106;17.084;2023-11-19T13:56:42;11.52;;;6.90;;
84121;SDS011;74217;51.106;17.084;2023-11-19T13:59:29;10.82;;;6.85;;
84121;SDS011;74217;51.106;17.084;2023-11-19T14:02:14;9.63;;;6.88;;
84121;SDS011;74217;51.106;17.084;2023-11-19T14:04:59;10.13;;;6.95;;
84121;SDS011;74217;51.106;17.084;2023-11-19T14:07:43;11.52;;;7.20;;
84121;SDS011;74217;51.106;17.084;2023-11-19T14:10:29;13.75;;;8.77;;
84121;SDS011;74217;51.106;17.084;2023-11-19T14:13:14;11.82;;;7.65;;
84121;SDS011;74217;51.106;17.084;2023-11-19T14:15:59;12.77;;;7.95;;
84121;SDS011;74217;51.106;17.084;2023-11-19T14:18:44;13.13;;;8.30;;
84121;SDS011;74217;51.106;17.084;2023-11-19T14:21:29;14.35;;;9.60;;
84121;SDS011;74217;51.106;17.084;2023-11-19T14:24:13;15.55;;;9.95;;
84121;SDS011;74217;51.106;17.084;2023-11-19T14:26:58;15.43;;;9.15;;
84121;SDS011;74217;51.106;17.084;2023-11-19T14:29:43;18.55;;;10.48;;
84121;SDS011;74217;51.106;17.084;2023-11-19T14:32:29;16.70;;;10.60;;
84121;SDS011;74217;51.106;17.084;2023-11-19T14:35:14;14.05;;;9.65;;
84121;SDS011;74217;51.106;17.084;2023-11-19T14:37:58;15.35;;;9.80;;
84121;SDS011;74217;51.106;17.084;2023-11-19T14:40:43;16.35;;;10.45;;
84121;SDS011;74217;51.106;17.084;2023-11-19T14:43:28;20.48;;;10.65;;
84121;SDS011;74217;51.106;17.084;2023-11-19T14:46:13;14.63;;;10.90;;
84121;SDS011;74217;51.106;17.084;2023-11-19T14:48:58;16.08;;;9.68;;
84121;SDS011;74217;51.106;17.084;2023-11-19T14:51:42;16.33;;;9.82;;
84121;SDS011;74217;51.106;17.084;2023-11-19T14:54:27;15.48;;;11.35;;
84121;SDS011;74217;51.106;17.084;2023-11-19T14:57:12;14.75;;;10.18;;
84121;SDS011;74217;51.106;17.084;2023-11-19T14:59:57;13.57;;;9.93;;
84121;SDS011;74217;51.106;17.084;2023-11-19T15:02:42;15.32;;;9.43;;
84121;SDS011;74217;51.106;17.084;2023-11-19T15:05:26;15.05;;;9.85;;
84121;SDS011;74217;51.106;17.084;2023-11-19T15:08:13;16.65;;;10.77;;
84121;SDS011;74217;51.106;17.084;2023-11-19T15:11:00;18.38;;;10.60;;
84121;SDS011;74217;51.106;17.084;2023-11-19T15:13:46;13.02;;;8.25;;
84121;SDS011;74217;51.106;17.084;2023-11-19T15:16:31;15.82;;;8.43;;
84121;SDS011;74217;51.106;17.084;2023-11-19T15:19:17;16.60;;;8.88;;
84121;SDS011;74217;51.106;17.084;2023-11-19T15:22:02;15.30;;;9.40;;
84121;SDS011;74217;51.106;17.084;2023-11-19T15:24:49;16.08;;;8.93;;
84121;SDS011;74217;51.106;17.084;2023-11-19T15:27:33;10.48;;;7.68;;
84121;SDS011;74217;51.106;17.084;2023-11-19T15:30:18;13.07;;;7.75;;
84121;SDS011;74217;51.106;17.084;2023-11-19T15:33:03;10.57;;;7.13;;
84121;SDS011;74217;51.106;17.084;2023-11-19T15:35:47;10.52;;;7.07;;
84121;SDS011;74217;51.106;17.084;2023-11-19T15:38:35;10.60;;;6.65;;
84121;SDS011;74217;51.106;17.084;2023-11-19T15:41:20;13.50;;;7.60;;
84121;SDS011;74217;51.106;17.084;2023-11-19T15:44:05;10.48;;;6.25;;
84121;SDS011;74217;51.106;17.084;2023-11-19T15:46:50;10.60;;;7.47;;
84121;SDS011;74217;51.106;17.084;2023-11-19T15:49:35;21.17;;;11.27;;
84121;SDS011;74217;51.106;17.084;2023-11-19T15:52:20;50.53;;;25.90;;
84121;SDS011;74217;51.106;17.084;2023-11-19T15:55:05;83.00;;;36.75;;
84121;SDS011;74217;51.106;17.084;2023-11-19T15:57:50;91.85;;;40.20;;
84121;SDS011;74217;51.106;17.084;2023-11-19T16:00:35;81.38;;;39.67;;
84121;SDS011;74217;51.106;17.084;2023-11-19T16:03:19;71.40;;;38.33;;
84121;SDS011;74217;51.106;17.084;2023-11-19T16:06:04;52.22;;;27.23;;
84121;SDS011;74217;51.106;17.084;2023-11-19T16:08:48;35.72;;;20.70;;
84121;SDS011;74217;51.106;17.084;2023-11-19T16:11:34;26.50;;;16.77;;
84121;SDS011;74217;51.106;17.084;2023-11-19T16:14:19;15.50;;;9.68;;
84121;SDS011;74217;51.106;17.084;2023-11-19T16:17:03;16.75;;;9.07;;
84121;SDS011;74217;51.106;17.084;2023-11-19T16:19:48;14.75;;;7.43;;
84121;SDS011;74217;51.106;17.084;2023-11-19T16:22:32;13.18;;;7.38;;
84121;SDS011;74217;51.106;17.084;2023-11-19T16:25:17;16.38;;;8.18;;
84121;SDS011;74217;51.106;17.084;2023-11-19T16:28:03;10.93;;;7.60;;
84121;SDS011;74217;51.106;17.084;2023-11-19T16:30:47;12.90;;;7.53;;
84121;SDS011;74217;51.106;17.084;2023-11-19T16:33:31;14.50;;;6.97;;
84121;SDS011;74217;51.106;17.084;2023-11-19T16:36:18;11.15;;;7.20;;